Time;durP1;ratioP1;P1;durP2;ratioP2;P2;SDS_P1;SDS_P2;PMS_P1;PMS_P2;Temp;Humidity;BMP_temperature;BMP_pressure;BME280_temperature;BME280_humidity;BME280_pressure;Samples;Min_cycle;Max_cycle;Signal;HPM_P1;HPM_P2
2023/04/28 00:00:29;;;;;;;5.22;4.82;;;;;;;;;;5001816;28;20058;-70
2023/04/28 00:02:55;;;;;;;4.82;4.53;;;;;;;;;;4996643;28;20045;-70
2023/04/28 00:05:24;;;;;;;5.68;5.05;;;;;;;;;;4997017;28;20044;-69
2023/04/28 00:07:49;;;;;;;4.28;4.07;;;;;;;;;;5001777;28;20030;-70
2023/04/28 00:10:15;;;;;;;4.80;4.53;;;;;;;;;;4977658;28;20512;-71
2023/04/28 00:12:41;;;;;;;4.68;4.40;;;;;;;;;;4998308;28;20048;-69
2023/04/28 00:15:07;;;;;;;4.30;4.10;;;;;;;;;;5005612;28;20451;-70
2023/04/28 00:17:33;;;;;;;5.65;5.25;;;;;;;;;;5008191;28;20053;-70
2023/04/28 00:19:58;;;;;;;5.95;5.47;;;;;;;;;;4995874;28;20038;-70
2023/04/28 00:22:24;;;;;;;4.78;4.47;;;;;;;;;;5000717;28;20027;-70
2023/04/28 00:24:49;;;;;;;5.18;4.78;;;;;;;;;;5001759;28;20060;-69
2023/04/28 00:27:15;;;;;;;5.18;4.70;;;;;;;;;;4999217;28;20489;-71
2023/04/28 00:29:40;;;;;;;4.90;4.50;;;;;;;;;;4976123;28;20030;-70
2023/04/28 00:32:06;;;;;;;5.05;4.68;;;;;;;;;;4982380;28;20037;-70
2023/04/28 00:34:32;;;;;;;4.50;4.20;;;;;;;;;;5000196;28;20039;-68
2023/04/28 00:36:58;;;;;;;5.28;4.95;;;;;;;;;;4983349;28;20064;-70
2023/04/28 00:39:25;;;;;;;5.18;4.88;;;;;;;;;;4996353;28;20156;-69
2023/04/28 00:41:51;;;;;;;5.57;5.22;;;;;;;;;;4980765;28;20027;-70
2023/04/28 00:44:16;;;;;;;5.85;4.97;;;;;;;;;;4979711;28;20496;-71
2023/04/28 00:46:42;;;;;;;4.50;4.30;;;;;;;;;;4980690;28;20056;-69
2023/04/28 00:49:08;;;;;;;4.25;3.95;;;;;;;;;;4981543;28;20029;-69
2023/04/28 00:51:34;;;;;;;5.28;4.88;;;;;;;;;;4999437;28;20113;-70
2023/04/28 00:54:00;;;;;;;6.53;4.97;;;;;;;;;;4975353;28;20141;-71
2023/04/28 00:56:29;;;;;;;4.47;4.20;;;;;;;;;;4997234;28;20025;-70
2023/04/28 00:58:58;;;;;;;4.60;4.35;;;;;;;;;;4985928;28;20033;-72
2023/04/28 01:01:24;;;;;;;5.53;5.13;;;;;;;;;;4999140;28;20088;-71
2023/04/28 01:03:49;;;;;;;4.97;4.35;;;;;;;;;;4996603;28;20042;-70
2023/04/28 01:06:20;;;;;;;8.40;4.63;;;;;;;;;;4996901;28;20089;-69
2023/04/28 01:08:48;;;;;;;5.60;5.20;;;;;;;;;;4981698;28;20042;-71
2023/04/28 01:11:15;;;;;;;5.68;5.18;;;;;;;;;;4986544;28;20042;-69
2023/04/28 01:14:00;;;;;;;4.50;4.20;;;;;;;;;;4980286;28;20073;-71
2023/04/28 01:16:31;;;;;;;5.13;4.72;;;;;;;;;;5002497;28;20042;-71
2023/04/28 01:18:59;;;;;;;5.07;4.78;;;;;;;;;;4978407;28;20038;-70
2023/04/28 01:21:32;;;;;;;5.22;4.82;;;;;;;;;;4996133;28;20042;-70
2023/04/28 01:24:05;;;;;;;5.38;4.90;;;;;;;;;;4997830;28;20045;-70
2023/04/28 01:26:30;;;;;;;5.47;5.13;;;;;;;;;;4998980;28;20046;-70
2023/04/28 01:28:56;;;;;;;5.80;5.40;;;;;;;;;;4981293;28;20045;-70
2023/04/28 01:31:21;;;;;;;4.80;4.38;;;;;;;;;;5004388;28;20088;-69
2023/04/28 01:33:47;;;;;;;5.50;5.05;;;;;;;;;;4997191;28;20554;-69
2023/04/28 01:36:15;;;;;;;5.55;5.15;;;;;;;;;;4982507;28;20484;-70
2023/04/28 01:38:42;;;;;;;5.88;5.45;;;;;;;;;;4974268;28;20590;-70
2023/04/28 01:41:07;;;;;;;5.45;5.15;;;;;;;;;;4979453;28;20069;-70
2023/04/28 01:43:33;;;;;;;5.07;4.68;;;;;;;;;;5009819;28;20100;-70
2023/04/28 01:45:59;;;;;;;5.85;5.38;;;;;;;;;;4982219;28;20073;-70
2023/04/28 01:48:24;;;;;;;5.28;4.88;;;;;;;;;;4992669;28;20061;-69
2023/04/28 01:50:50;;;;;;;6.03;5.43;;;;;;;;;;4967601;28;20109;-70
2023/04/28 01:53:19;;;;;;;4.80;4.45;;;;;;;;;;4999358;28;20046;-69
2023/04/28 01:55:46;;;;;;;5.40;5.00;;;;;;;;;;4994302;28;20421;-70
2023/04/28 01:58:12;;;;;;;6.57;5.40;;;;;;;;;;5006850;28;20038;-69
2023/04/28 02:00:38;;;;;;;5.43;5.03;;;;;;;;;;4982143;28;20034;-70
2023/04/28 02:03:04;;;;;;;5.25;4.82;;;;;;;;;;4983149;28;20104;-70
2023/04/28 02:05:30;;;;;;;5.70;5.20;;;;;;;;;;4972300;28;20038;-70
2023/04/28 02:07:56;;;;;;;5.45;4.95;;;;;;;;;;4976589;28;20436;-71
2023/04/28 02:10:21;;;;;;;5.80;5.32;;;;;;;;;;5006185;28;20062;-71
2023/04/28 02:12:47;;;;;;;5.50;5.10;;;;;;;;;;4979968;28;20038;-68
2023/04/28 02:15:12;;;;;;;6.35;5.75;;;;;;;;;;4980752;28;20034;-68
2023/04/28 02:17:38;;;;;;;8.27;5.32;;;;;;;;;;4995952;28;20069;-69
2023/04/28 02:20:05;;;;;;;5.78;5.13;;;;;;;;;;4980996;28;20408;-68
2023/04/28 02:22:31;;;;;;;4.43;4.20;;;;;;;;;;5007530;28;20037;-68
2023/04/28 02:24:57;;;;;;;4.85;4.43;;;;;;;;;;4995076;28;20073;-70
2023/04/28 02:27:23;;;;;;;5.00;4.70;;;;;;;;;;5003095;28;20539;-68
2023/04/28 02:29:49;;;;;;;5.00;4.70;;;;;;;;;;4991899;28;20107;-68
2023/04/28 02:32:15;;;;;;;5.88;5.47;;;;;;;;;;4984916;28;20413;-68
2023/04/28 02:34:41;;;;;;;5.05;4.65;;;;;;;;;;5009563;28;20042;-69
2023/04/28 02:37:06;;;;;;;5.43;4.93;;;;;;;;;;4984948;28;20042;-68
2023/04/28 02:39:32;;;;;;;5.47;5.07;;;;;;;;;;5001419;28;20069;-69
2023/04/28 02:41:58;;;;;;;4.97;4.68;;;;;;;;;;4985569;28;20023;-69
2023/04/28 02:44:23;;;;;;;6.00;5.03;;;;;;;;;;5002366;28;20038;-68
2023/04/28 02:46:49;;;;;;;4.68;4.38;;;;;;;;;;5004063;28;20093;-68
2023/04/28 02:49:15;;;;;;;5.35;4.72;;;;;;;;;;4978694;28;20465;-68
2023/04/28 02:51:41;;;;;;;5.25;4.95;;;;;;;;;;4982597;28;20493;-68
2023/04/28 02:54:07;;;;;;;5.22;4.82;;;;;;;;;;4987833;28;20053;-70
2023/04/28 02:56:34;;;;;;;5.45;5.05;;;;;;;;;;4985381;28;20653;-70
2023/04/28 02:59:01;;;;;;;5.40;4.97;;;;;;;;;;4980087;28;20041;-70
2023/04/28 03:01:26;;;;;;;5.68;5.03;;;;;;;;;;5002507;28;20034;-67
2023/04/28 03:03:52;;;;;;;5.20;4.88;;;;;;;;;;4982838;28;20037;-67
2023/04/28 03:06:17;;;;;;;4.90;4.50;;;;;;;;;;5002340;28;20463;-69
2023/04/28 03:08:43;;;;;;;5.22;4.93;;;;;;;;;;5002487;28;20049;-69
2023/04/28 03:11:09;;;;;;;5.20;4.88;;;;;;;;;;4979472;28;20038;-67
2023/04/28 03:13:35;;;;;;;5.70;5.30;;;;;;;;;;5001986;28;20041;-70
2023/04/28 03:16:01;;;;;;;6.90;5.18;;;;;;;;;;4974777;28;20038;-68
2023/04/28 03:18:27;;;;;;;6.22;5.70;;;;;;;;;;4977632;28;20037;-68
2023/04/28 03:20:54;;;;;;;5.53;5.03;;;;;;;;;;4977304;28;20034;-70
2023/04/28 03:23:20;;;;;;;5.47;5.07;;;;;;;;;;5000239;28;20120;-69
2023/04/28 03:25:45;;;;;;;16.20;5.90;;;;;;;;;;4983053;28;20042;-69
2023/04/28 03:28:11;;;;;;;6.15;5.65;;;;;;;;;;5002386;28;20513;-68
2023/04/28 03:30:37;;;;;;;6.28;5.68;;;;;;;;;;4980229;28;20359;-69
2023/04/28 03:33:02;;;;;;;6.13;4.93;;;;;;;;;;4999033;28;20046;-69
2023/04/28 03:35:28;;;;;;;5.45;4.93;;;;;;;;;;4986124;28;20534;-69
2023/04/28 03:37:53;;;;;;;6.47;5.85;;;;;;;;;;4980510;28;20074;-70
2023/04/28 03:40:19;;;;;;;8.18;7.10;;;;;;;;;;5002019;28;20034;-67
2023/04/28 03:43:17;;;;;;;6.25;5.85;;;;;;;;;;4957763;28;20065;-69
2023/04/28 03:46:15;;;;;;;5.38;4.97;;;;;;;;;;4970685;28;20046;-70
2023/04/28 03:48:41;;;;;;;5.70;5.20;;;;;;;;;;4989358;28;20033;-68
2023/04/28 03:51:06;;;;;;;6.28;5.78;;;;;;;;;;4996091;28;20573;-68
2023/04/28 03:53:32;;;;;;;14.57;4.45;;;;;;;;;;4984880;28;20045;-67
2023/04/28 03:55:58;;;;;;;6.97;6.15;;;;;;;;;;4981580;28;20038;-67
2023/04/28 03:58:23;;;;;;;5.60;5.30;;;;;;;;;;4992725;28;20506;-69
2023/04/28 04:00:49;;;;;;;5.28;4.88;;;;;;;;;;4978987;28;20053;-68
2023/04/28 04:03:15;;;;;;;5.72;5.32;;;;;;;;;;4981698;28;20026;-67
2023/04/28 04:05:42;;;;;;;7.07;6.15;;;;;;;;;;5009500;28;20113;-67
2023/04/28 04:08:08;;;;;;;5.60;5.13;;;;;;;;;;4977763;28;20181;-69
2023/04/28 04:10:33;;;;;;;5.75;5.38;;;;;;;;;;4986180;28;20039;-70
2023/04/28 04:12:59;;;;;;;7.47;5.57;;;;;;;;;;4985378;28;20045;-67
2023/04/28 04:15:25;;;;;;;6.18;5.78;;;;;;;;;;4982212;28;20041;-68
2023/04/28 04:17:51;;;;;;;11.10;8.80;;;;;;;;;;4979929;28;20030;-67
2023/04/28 04:20:17;;;;;;;6.50;5.97;;;;;;;;;;4984337;28;20033;-68
2023/04/28 04:22:44;;;;;;;8.40;6.97;;;;;;;;;;4980511;28;20041;-69
2023/04/28 04:25:09;;;;;;;10.75;5.85;;;;;;;;;;4976147;28;20549;-70
2023/04/28 04:27:35;;;;;;;9.32;6.45;;;;;;;;;;5002302;28;20743;-68
2023/04/28 04:30:01;;;;;;;6.90;6.40;;;;;;;;;;4980520;28;20649;-67
2023/04/28 04:32:27;;;;;;;6.38;5.88;;;;;;;;;;4981400;28;20225;-69
2023/04/28 04:34:53;;;;;;;5.70;5.05;;;;;;;;;;4980012;28;20030;-68
2023/04/28 04:37:18;;;;;;;22.17;8.90;;;;;;;;;;4983231;28;20044;-69
2023/04/28 04:39:51;;;;;;;32.53;15.23;;;;;;;;;;4983397;28;20456;-69
2023/04/28 04:42:16;;;;;;;8.52;5.25;;;;;;;;;;4984898;28;20650;-70
2023/04/28 04:44:50;;;;;;;31.33;15.80;;;;;;;;;;5012355;28;20615;-68
2023/04/28 04:47:25;;;;;;;7.50;6.75;;;;;;;;;;4979592;28;20041;-69
2023/04/28 04:49:51;;;;;;;34.25;17.17;;;;;;;;;;4996024;28;20038;-67
2023/04/28 04:52:17;;;;;;;14.48;9.20;;;;;;;;;;4977510;28;20114;-69
2023/04/28 04:54:44;;;;;;;5.80;5.40;;;;;;;;;;4984157;28;20050;-68
2023/04/28 04:57:11;;;;;;;6.28;5.88;;;;;;;;;;4972660;28;20034;-71
2023/04/28 05:00:10;;;;;;;6.47;6.07;;;;;;;;;;4962831;28;20390;-69
2023/04/28 05:02:36;;;;;;;6.47;5.97;;;;;;;;;;5002343;28;20041;-67
2023/04/28 05:05:04;;;;;;;67.03;30.73;;;;;;;;;;4982253;28;20057;-69
2023/04/28 05:07:30;;;;;;;20.33;15.23;;;;;;;;;;4980241;28;20042;-68
2023/04/28 05:09:57;;;;;;;6.93;6.43;;;;;;;;;;4974117;28;20034;-66
2023/04/28 05:12:22;;;;;;;7.65;7.05;;;;;;;;;;4977957;28;20128;-68
2023/04/28 05:14:48;;;;;;;6.65;6.13;;;;;;;;;;4981609;28;20467;-68
2023/04/28 05:17:14;;;;;;;6.15;5.75;;;;;;;;;;5004629;28;20473;-68
2023/04/28 05:19:41;;;;;;;7.40;6.80;;;;;;;;;;4982707;28;20065;-66
2023/04/28 05:22:07;;;;;;;7.90;7.35;;;;;;;;;;4985017;28;20052;-66
2023/04/28 05:24:35;;;;;;;7.15;6.55;;;;;;;;;;4983253;28;20553;-68
2023/04/28 05:27:01;;;;;;;8.85;7.82;;;;;;;;;;4991445;28;20033;-67
2023/04/28 05:29:27;;;;;;;7.05;6.55;;;;;;;;;;4977900;28;20390;-67
2023/04/28 05:31:52;;;;;;;6.43;5.93;;;;;;;;;;5009495;28;20034;-68
2023/04/28 05:34:20;;;;;;;6.22;5.72;;;;;;;;;;4978614;28;20044;-70
2023/04/28 05:36:46;;;;;;;7.75;6.78;;;;;;;;;;4979735;28;20099;-67
2023/04/28 05:39:12;;;;;;;7.18;6.43;;;;;;;;;;4982097;28;20053;-68
2023/04/28 05:41:39;;;;;;;7.07;6.57;;;;;;;;;;4980093;28;20449;-69
2023/04/28 05:44:05;;;;;;;8.68;7.30;;;;;;;;;;4978723;28;20105;-69
2023/04/28 05:46:31;;;;;;;6.63;6.22;;;;;;;;;;4979557;28;20044;-69
2023/04/28 05:48:58;;;;;;;6.80;6.30;;;;;;;;;;4980379;28;20444;-67
2023/04/28 05:51:26;;;;;;;8.35;7.65;;;;;;;;;;5003560;28;20029;-69
2023/04/28 05:53:51;;;;;;;8.10;7.50;;;;;;;;;;4975481;28;20038;-69
2023/04/28 05:56:18;;;;;;;6.90;6.40;;;;;;;;;;4980873;28;20041;-69
2023/04/28 05:58:43;;;;;;;6.90;6.38;;;;;;;;;;4982326;28;20297;-69
2023/04/28 06:01:10;;;;;;;8.68;7.93;;;;;;;;;;4984737;28;20026;-69
2023/04/28 06:03:39;;;;;;;10.98;7.35;;;;;;;;;;4993086;28;20042;-69
2023/04/28 06:06:06;;;;;;;6.60;6.10;;;;;;;;;;4983598;28;20053;-67
2023/04/28 06:08:31;;;;;;;5.65;5.35;;;;;;;;;;4975046;28;20581;-69
2023/04/28 06:10:57;;;;;;;4.93;4.63;;;;;;;;;;5004791;28;20482;-68
2023/04/28 06:13:23;;;;;;;6.57;6.10;;;;;;;;;;4991080;28;20042;-67
2023/04/28 06:15:48;;;;;;;7.75;6.90;;;;;;;;;;4997052;28;20037;-67
2023/04/28 06:18:15;;;;;;;6.60;6.18;;;;;;;;;;4995195;28;20039;-69
2023/04/28 06:20:41;;;;;;;7.40;6.85;;;;;;;;;;4981193;28;20056;-69
2023/04/28 06:23:08;;;;;;;6.68;6.05;;;;;;;;;;4981473;28;20042;-67
2023/04/28 06:25:35;;;;;;;9.48;5.70;;;;;;;;;;4978661;28;20570;-67
2023/04/28 06:28:01;;;;;;;7.05;6.25;;;;;;;;;;4979621;28;20025;-67
2023/04/28 06:30:27;;;;;;;7.00;6.47;;;;;;;;;;4993585;28;20029;-67
2023/04/28 06:32:54;;;;;;;5.13;4.82;;;;;;;;;;4998669;28;20456;-67
2023/04/28 06:35:21;;;;;;;6.68;6.18;;;;;;;;;;4977958;28;20113;-67
2023/04/28 06:37:47;;;;;;;9.63;8.82;;;;;;;;;;4993262;28;20038;-68
2023/04/28 06:40:14;;;;;;;8.15;7.43;;;;;;;;;;4998972;28;20034;-67
2023/04/28 06:42:45;;;;;;;7.90;7.25;;;;;;;;;;4973711;28;20061;-67
2023/04/28 06:45:17;;;;;;;7.25;6.65;;;;;;;;;;4982087;28;20100;-67
2023/04/28 06:47:43;;;;;;;6.00;5.60;;;;;;;;;;5001815;28;20030;-67
2023/04/28 06:50:09;;;;;;;6.10;5.72;;;;;;;;;;5000672;28;20097;-67
2023/04/28 06:52:37;;;;;;;7.80;7.20;;;;;;;;;;4997035;28;20114;-67
2023/04/28 06:55:05;;;;;;;7.85;7.25;;;;;;;;;;4983209;28;20117;-68
2023/04/28 06:57:31;;;;;;;7.90;7.30;;;;;;;;;;5001527;28;20031;-68
2023/04/28 06:59:56;;;;;;;6.45;6.03;;;;;;;;;;4983568;28;20030;-67
2023/04/28 07:02:22;;;;;;;7.00;6.50;;;;;;;;;;4998962;28;20030;-68
2023/04/28 07:04:48;;;;;;;10.90;7.00;;;;;;;;;;4993521;28;20381;-67
2023/04/28 07:07:13;;;;;;;7.05;6.55;;;;;;;;;;5003226;28;20038;-67
2023/04/28 07:09:39;;;;;;;5.63;5.32;;;;;;;;;;5000225;28;20083;-66
2023/04/28 07:12:05;;;;;;;8.05;7.35;;;;;;;;;;4981812;28;20033;-67
2023/04/28 07:14:30;;;;;;;7.97;7.00;;;;;;;;;;4998478;28;20034;-66
2023/04/28 07:16:56;;;;;;;6.47;6.05;;;;;;;;;;4998675;28;20112;-66
2023/04/28 07:19:21;;;;;;;8.55;6.93;;;;;;;;;;4996827;28;20516;-66
2023/04/28 07:21:47;;;;;;;7.18;6.47;;;;;;;;;;5006166;28;20367;-66
2023/04/28 07:24:12;;;;;;;7.03;6.53;;;;;;;;;;5003462;28;20029;-67
2023/04/28 07:26:38;;;;;;;7.45;6.85;;;;;;;;;;5003113;28;20068;-66
2023/04/28 07:29:04;;;;;;;7.53;6.78;;;;;;;;;;5000636;28;20042;-66
2023/04/28 07:31:29;;;;;;;6.97;6.38;;;;;;;;;;4997392;28;20042;-66
2023/04/28 07:33:55;;;;;;;7.60;6.78;;;;;;;;;;4999028;28;20045;-66
2023/04/28 07:36:21;;;;;;;6.63;6.13;;;;;;;;;;5001759;28;20528;-67
2023/04/28 07:38:46;;;;;;;8.10;7.35;;;;;;;;;;4998327;28;20053;-68
2023/04/28 07:41:12;;;;;;;6.80;6.32;;;;;;;;;;5001386;28;20022;-66
2023/04/28 07:43:38;;;;;;;7.68;6.97;;;;;;;;;;4998641;28;20046;-66
2023/04/28 07:46:05;;;;;;;7.00;6.53;;;;;;;;;;4994514;28;20050;-66
2023/04/28 07:48:31;;;;;;;6.93;6.40;;;;;;;;;;4999708;28;20030;-67
2023/04/28 07:50:56;;;;;;;8.23;7.35;;;;;;;;;;5002236;28;20072;-66
2023/04/28 07:53:22;;;;;;;7.43;6.80;;;;;;;;;;4997643;28;20069;-67
2023/04/28 07:55:47;;;;;;;7.57;6.97;;;;;;;;;;5000546;28;20129;-68
2023/04/28 07:58:13;;;;;;;7.57;6.97;;;;;;;;;;4982646;28;20100;-68
2023/04/28 08:00:39;;;;;;;8.05;7.15;;;;;;;;;;4998408;28;20030;-67
2023/04/28 08:03:04;;;;;;;6.45;5.97;;;;;;;;;;5002767;28;20110;-68
2023/04/28 08:05:31;;;;;;;8.13;7.32;;;;;;;;;;5000426;28;20125;-67
2023/04/28 08:07:56;;;;;;;7.80;7.03;;;;;;;;;;4980887;28;20034;-68
2023/04/28 08:10:22;;;;;;;7.93;7.25;;;;;;;;;;4998933;28;20034;-67
2023/04/28 08:12:47;;;;;;;7.97;7.28;;;;;;;;;;5004208;28;20122;-66
2023/04/28 08:15:13;;;;;;;8.85;8.15;;;;;;;;;;5000368;28;20077;-67
2023/04/28 08:17:38;;;;;;;9.85;8.70;;;;;;;;;;5002473;28;20349;-68
2023/04/28 08:20:05;;;;;;;9.60;8.50;;;;;;;;;;5002033;28;20041;-70
2023/04/28 08:22:31;;;;;;;9.88;8.30;;;;;;;;;;5001796;28;20026;-70
2023/04/28 08:24:56;;;;;;;10.48;9.48;;;;;;;;;;5003050;28;20041;-67
2023/04/28 08:27:24;;;;;;;9.20;8.50;;;;;;;;;;4997307;28;20562;-69
2023/04/28 08:29:49;;;;;;;10.93;9.32;;;;;;;;;;4998522;28;20049;-69
2023/04/28 08:32:15;;;;;;;9.75;8.85;;;;;;;;;;4998962;28;20030;-68
2023/04/28 08:34:40;;;;;;;9.60;8.75;;;;;;;;;;5005472;28;20505;-68
2023/04/28 08:37:06;;;;;;;9.60;8.80;;;;;;;;;;5004112;28;20034;-68
2023/04/28 08:39:33;;;;;;;9.57;8.68;;;;;;;;;;4994593;28;20042;-67
2023/04/28 08:41:58;;;;;;;9.40;8.68;;;;;;;;;;4995680;28;20065;-68
2023/04/28 08:44:24;;;;;;;8.07;7.38;;;;;;;;;;4998207;28;20397;-68
2023/04/28 08:46:55;;;;;;;8.63;7.93;;;;;;;;;;5001587;28;20436;-70
2023/04/28 08:49:25;;;;;;;8.90;8.10;;;;;;;;;;5000434;28;20038;-67
2023/04/28 08:51:59;;;;;;;10.07;9.20;;;;;;;;;;4997791;28;20041;-67
2023/04/28 08:54:30;;;;;;;28.23;8.82;;;;;;;;;;4999970;28;20033;-67
2023/04/28 08:56:57;;;;;;;52.50;10.77;;;;;;;;;;5001726;28;20524;-68
2023/04/28 08:59:22;;;;;;;8.98;8.20;;;;;;;;;;5001933;28;20041;-69
2023/04/28 09:01:49;;;;;;;10.02;9.13;;;;;;;;;;5003567;28;20038;-69
2023/04/28 09:04:18;;;;;;;10.80;9.82;;;;;;;;;;5002815;28;20034;-69
2023/04/28 09:06:45;;;;;;;31.85;22.42;;;;;;;;;;5002423;28;20034;-68
2023/04/28 09:09:19;;;;;;;11.23;9.73;;;;;;;;;;4997447;28;20049;-69
2023/04/28 09:11:58;;;;;;;10.82;9.77;;;;;;;;;;5001984;28;20030;-69
2023/04/28 09:14:25;;;;;;;9.30;8.60;;;;;;;;;;4994357;28;20486;-68
2023/04/28 09:16:51;;;;;;;10.75;9.38;;;;;;;;;;5004033;28;20042;-69
2023/04/28 09:19:18;;;;;;;27.83;16.42;;;;;;;;;;5000378;28;20034;-69
2023/04/28 09:22:04;;;;;;;9.60;8.85;;;;;;;;;;4996687;28;20089;-69
2023/04/28 09:24:42;;;;;;;10.75;9.85;;;;;;;;;;5002822;28;20038;-69
2023/04/28 09:27:10;;;;;;;12.43;11.20;;;;;;;;;;5000264;28;20038;-68
2023/04/28 09:29:51;;;;;;;10.73;9.57;;;;;;;;;;4980868;28;20049;-68
2023/04/28 09:32:21;;;;;;;9.45;8.65;;;;;;;;;;4994690;28;20527;-68
2023/04/28 09:34:52;;;;;;;10.52;9.40;;;;;;;;;;4998326;28;20548;-69
2023/04/28 09:37:20;;;;;;;8.90;8.30;;;;;;;;;;4995823;28;20514;-68
2023/04/28 09:39:48;;;;;;;9.73;8.90;;;;;;;;;;4995335;28;20042;-69
2023/04/28 09:42:33;;;;;;;11.80;9.73;;;;;;;;;;4996107;28;20132;-71
2023/04/28 09:45:06;;;;;;;9.68;8.75;;;;;;;;;;5001662;28;20051;-69
2023/04/28 09:47:34;;;;;;;10.38;9.48;;;;;;;;;;4999908;28;20539;-69
2023/04/28 09:50:03;;;;;;;10.80;9.75;;;;;;;;;;4996693;28;20038;-69
2023/04/28 09:52:29;;;;;;;9.73;8.95;;;;;;;;;;4990661;28;20458;-69
2023/04/28 09:54:56;;;;;;;10.70;9.35;;;;;;;;;;4994919;28;20121;-68
2023/04/28 09:57:22;;;;;;;11.80;9.70;;;;;;;;;;4999806;28;20137;-70
2023/04/28 09:59:50;;;;;;;9.20;8.40;;;;;;;;;;4989758;28;20409;-68
2023/04/28 10:02:17;;;;;;;9.57;8.88;;;;;;;;;;4991016;28;20030;-69
2023/04/28 10:04:44;;;;;;;8.90;7.90;;;;;;;;;;4995367;28;20430;-69
2023/04/28 10:07:12;;;;;;;9.13;8.50;;;;;;;;;;4992069;28;20048;-68
2023/04/28 10:09:38;;;;;;;9.15;8.35;;;;;;;;;;4996046;28;20488;-68
2023/04/28 10:12:04;;;;;;;9.68;9.00;;;;;;;;;;4997088;28;20353;-68
2023/04/28 10:14:30;;;;;;;10.07;9.35;;;;;;;;;;4993835;28;20053;-68
2023/04/28 10:16:58;;;;;;;10.18;9.38;;;;;;;;;;4978559;28;20038;-68
2023/04/28 10:19:24;;;;;;;9.68;8.88;;;;;;;;;;4998331;28;20609;-68
2023/04/28 10:22:34;;;;;;;9.20;8.50;;;;;;;;;;4987089;28;20034;-69
2023/04/28 10:25:11;;;;;;;8.45;7.80;;;;;;;;;;4977883;28;20054;-69
2023/04/28 10:27:39;;;;;;;9.25;8.63;;;;;;;;;;4997696;28;20045;-69
2023/04/28 10:30:16;;;;;;;10.05;9.25;;;;;;;;;;5002804;28;20049;-69
2023/04/28 10:32:46;;;;;;;8.57;7.88;;;;;;;;;;5002116;28;20528;-69
2023/04/28 10:35:24;;;;;;;8.60;7.60;;;;;;;;;;4996608;28;20034;-68
2023/04/28 10:38:07;;;;;;;7.93;7.30;;;;;;;;;;5003634;28;20060;-69
2023/04/28 10:40:45;;;;;;;7.38;6.88;;;;;;;;;;4995570;28;20036;-68
2023/04/28 10:43:20;;;;;;;6.93;6.50;;;;;;;;;;5000809;28;20040;-69
2023/04/28 10:45:52;;;;;;;7.00;6.60;;;;;;;;;;4954794;28;20470;-70
2023/04/28 10:48:19;;;;;;;6.82;6.43;;;;;;;;;;4961438;28;20064;-70
2023/04/28 10:51:06;;;;;;;7.35;6.95;;;;;;;;;;4958250;28;20050;-70
2023/04/28 10:53:44;;;;;;;7.47;6.65;;;;;;;;;;4958629;28;20137;-70
2023/04/28 10:56:12;;;;;;;7.32;6.63;;;;;;;;;;4967469;28;20516;-69
2023/04/28 10:58:41;;;;;;;7.55;7.05;;;;;;;;;;4964829;28;20043;-69
2023/04/28 11:01:19;;;;;;;7.40;6.80;;;;;;;;;;4961591;28;20786;-70
2023/04/28 11:03:52;;;;;;;7.10;6.70;;;;;;;;;;4962515;28;20062;-70
2023/04/28 11:06:27;;;;;;;7.90;7.40;;;;;;;;;;4957693;28;20138;-70
2023/04/28 11:09:21;;;;;;;7.75;7.15;;;;;;;;;;4966050;28;20354;-70
2023/04/28 11:11:53;;;;;;;8.13;7.63;;;;;;;;;;4931444;28;20117;-70
2023/04/28 11:14:19;;;;;;;7.22;6.82;;;;;;;;;;4958902;28;20089;-70
2023/04/28 11:16:50;;;;;;;7.72;7.13;;;;;;;;;;4957899;28;20042;-70
2023/04/28 11:19:24;;;;;;;7.78;7.28;;;;;;;;;;4950820;28;20039;-70
2023/04/28 11:21:51;;;;;;;7.30;6.80;;;;;;;;;;4962523;28;20578;-70
2023/04/28 11:24:17;;;;;;;7.28;6.82;;;;;;;;;;4967188;28;20501;-70
2023/04/28 11:26:43;;;;;;;7.50;6.90;;;;;;;;;;4961255;28;20034;-70
2023/04/28 11:29:10;;;;;;;7.43;6.93;;;;;;;;;;4962127;28;20031;-70
2023/04/28 11:31:37;;;;;;;6.05;5.75;;;;;;;;;;4959773;28;20039;-70
2023/04/28 11:34:05;;;;;;;6.63;5.82;;;;;;;;;;4957294;28;20047;-69
2023/04/28 11:36:33;;;;;;;6.63;6.22;;;;;;;;;;4964347;28;20042;-70
2023/04/28 11:38:59;;;;;;;;;;;;;;;;;;4961983;28;20446;-70
2023/04/28 11:41:25;;;;;;;6.57;6.18;;;;;;;;;;4959875;28;20589;-70
2023/04/28 11:43:51;;;;;;;6.40;6.00;;;;;;;;;;4964236;28;20101;-70
2023/04/28 11:46:19;;;;;;;6.32;5.93;;;;;;;;;;4962392;28;20034;-70
2023/04/28 11:48:45;;;;;;;5.60;5.30;;;;;;;;;;4959565;28;20081;-70
2023/04/28 11:51:31;;;;;;;5.07;4.88;;;;;;;;;;4955283;28;20031;-70
2023/04/28 11:53:57;;;;;;;5.18;4.88;;;;;;;;;;4963781;28;20122;-71
2023/04/28 11:56:22;;;;;;;4.72;4.53;;;;;;;;;;4957751;28;20121;-70
2023/04/28 11:59:09;;;;;;;5.60;5.00;;;;;;;;;;4958761;28;20205;-70
2023/04/28 12:01:50;;;;;;;5.00;4.70;;;;;;;;;;4960637;28;20039;-70
2023/04/28 12:04:31;;;;;;;5.55;5.15;;;;;;;;;;4962477;28;20509;-70
2023/04/28 12:06:58;;;;;;;5.20;4.90;;;;;;;;;;4959834;28;20549;-70
2023/04/28 12:09:24;;;;;;;5.22;4.93;;;;;;;;;;4954294;28;20042;-70
2023/04/28 12:12:01;;;;;;;5.40;5.00;;;;;;;;;;4963444;28;20086;-70
2023/04/28 12:14:26;;;;;;;5.22;4.93;;;;;;;;;;4959308;28;20227;-70
2023/04/28 12:16:52;;;;;;;5.75;5.35;;;;;;;;;;4957151;28;20799;-71
2023/04/28 12:19:19;;;;;;;5.18;4.88;;;;;;;;;;4961858;28;20038;-70
2023/04/28 12:22:06;;;;;;;4.72;4.47;;;;;;;;;;4960932;28;20067;-69
2023/04/28 12:24:34;;;;;;;4.78;4.47;;;;;;;;;;4955886;28;20038;-71
2023/04/28 12:27:17;;;;;;;5.03;4.72;;;;;;;;;;4962287;28;20606;-70
2023/04/28 12:29:45;;;;;;;4.97;4.68;;;;;;;;;;4961427;28;20047;-70
2023/04/28 12:32:11;;;;;;;4.50;4.20;;;;;;;;;;4960089;28;20042;-70
2023/04/28 12:34:42;;;;;;;5.00;4.70;;;;;;;;;;4962246;28;20120;-70
2023/04/28 12:37:07;;;;;;;4.75;4.55;;;;;;;;;;4957401;28;20031;-70
2023/04/28 12:39:38;;;;;;;4.68;4.47;;;;;;;;;;4958954;28;20042;-69
2023/04/28 12:42:05;;;;;;;4.55;4.35;;;;;;;;;;4955533;28;20493;-70
2023/04/28 12:44:34;;;;;;;4.50;4.30;;;;;;;;;;4957335;28;20051;-70
2023/04/28 12:47:10;;;;;;;4.90;4.60;;;;;;;;;;4956788;28;20066;-70
2023/04/28 12:49:36;;;;;;;5.30;4.70;;;;;;;;;;4962645;28;20041;-70
2023/04/28 12:52:05;;;;;;;4.60;4.40;;;;;;;;;;4959264;28;20035;-70
2023/04/28 12:54:31;;;;;;;4.72;4.53;;;;;;;;;;4953489;28;20039;-70
2023/04/28 12:56:56;;;;;;;4.10;3.90;;;;;;;;;;4962256;28;20089;-70
2023/04/28 12:59:22;;;;;;;4.25;4.03;;;;;;;;;;4958021;28;20046;-70
2023/04/28 13:01:49;;;;;;;4.20;4.00;;;;;;;;;;4961364;28;20126;-70
2023/04/28 13:04:17;;;;;;;3.88;3.67;;;;;;;;;;4959510;28;20731;-69
2023/04/28 13:06:42;;;;;;;4.00;3.80;;;;;;;;;;4960118;28;20372;-69
2023/04/28 13:09:14;;;;;;;4.18;3.97;;;;;;;;;;4962786;28;20049;-70
2023/04/28 13:11:40;;;;;;;3.92;3.78;;;;;;;;;;4957105;28;20035;-70
2023/04/28 13:14:06;;;;;;;4.40;4.10;;;;;;;;;;4952933;28;20035;-70
2023/04/28 13:16:32;;;;;;;4.07;3.88;;;;;;;;;;4962073;28;20555;-70
2023/04/28 13:18:58;;;;;;;4.47;4.18;;;;;;;;;;4955283;28;20039;-70
2023/04/28 13:21:24;;;;;;;4.40;4.20;;;;;;;;;;4957849;28;20039;-70
2023/04/28 13:23:50;;;;;;;4.57;4.38;;;;;;;;;;4956230;28;20459;-70
2023/04/28 13:26:15;;;;;;;4.60;4.30;;;;;;;;;;4960802;28;20094;-70
2023/04/28 13:28:41;;;;;;;4.53;4.20;;;;;;;;;;4959742;28;20098;-70
2023/04/28 13:31:07;;;;;;;4.85;4.35;;;;;;;;;;4960662;28;20034;-70
2023/04/28 13:33:33;;;;;;;4.43;4.22;;;;;;;;;;4957322;28;20049;-70
2023/04/28 13:35:58;;;;;;;4.70;4.50;;;;;;;;;;4955779;28;20035;-70
2023/04/28 13:38:25;;;;;;;4.60;4.35;;;;;;;;;;4956452;28;20046;-70
2023/04/28 13:40:52;;;;;;;4.57;4.38;;;;;;;;;;4959760;28;20026;-70
2023/04/28 13:43:18;;;;;;;4.65;4.22;;;;;;;;;;4961633;28;20041;-70
2023/04/28 13:45:43;;;;;;;4.55;4.20;;;;;;;;;;4959072;28;20030;-70
2023/04/28 13:48:11;;;;;;;4.22;4.03;;;;;;;;;;4960516;28;20926;-70
2023/04/28 13:50:36;;;;;;;4.63;4.43;;;;;;;;;;4957713;28;20083;-70
2023/04/28 13:53:02;;;;;;;4.10;3.90;;;;;;;;;;4959474;28;20111;-70
2023/04/28 13:55:27;;;;;;;4.10;3.90;;;;;;;;;;4967503;28;20050;-70
2023/04/28 13:57:54;;;;;;;4.45;4.15;;;;;;;;;;4954781;28;20402;-70
2023/04/28 14:00:20;;;;;;;4.85;4.55;;;;;;;;;;4955956;28;20054;-71
2023/04/28 14:02:48;;;;;;;4.53;4.10;;;;;;;;;;4959250;28;20042;-70
2023/04/28 14:05:15;;;;;;;4.70;4.38;;;;;;;;;;4957871;28;20087;-71
2023/04/28 14:07:44;;;;;;;4.90;4.22;;;;;;;;;;4964638;28;20035;-71
2023/04/28 14:10:10;;;;;;;4.82;4.63;;;;;;;;;;4958720;28;20047;-71
2023/04/28 14:12:37;;;;;;;4.15;3.95;;;;;;;;;;4958267;28;20042;-71
2023/04/28 14:15:06;;;;;;;4.10;3.90;;;;;;;;;;4956825;28;20058;-71
2023/04/28 14:17:33;;;;;;;4.30;4.00;;;;;;;;;;4948418;28;20035;-71
2023/04/28 14:20:03;;;;;;;5.10;4.60;;;;;;;;;;4960495;28;20084;-71
2023/04/28 14:22:29;;;;;;;4.18;3.85;;;;;;;;;;4960864;28;20038;-71
2023/04/28 14:24:54;;;;;;;4.35;4.05;;;;;;;;;;4959289;28;20054;-71
2023/04/28 14:27:21;;;;;;;4.43;4.13;;;;;;;;;;4958473;28;20504;-70
2023/04/28 14:29:49;;;;;;;4.35;4.05;;;;;;;;;;4958628;28;20047;-71
2023/04/28 14:32:15;;;;;;;4.70;4.47;;;;;;;;;;4958588;28;20035;-71
2023/04/28 14:34:42;;;;;;;4.50;4.30;;;;;;;;;;4958143;28;20078;-71
2023/04/28 14:37:08;;;;;;;4.47;4.28;;;;;;;;;;4959106;28;20074;-71
2023/04/28 14:39:34;;;;;;;4.40;4.20;;;;;;;;;;4956496;28;20070;-71
2023/04/28 14:42:00;;;;;;;4.07;3.88;;;;;;;;;;4958499;28;20150;-72
2023/04/28 14:44:26;;;;;;;4.70;4.25;;;;;;;;;;4957074;28;20035;-71